Weather at North Perry Airport

Public forecast

Using degrees Fahrenheit for public forecast. Weather courtesy of forecast.io.

Current aviation weather report (METAR) for North Perry Airport

2024/05/24 04:53 (retrieved 30 minutes ago)

KHWO 240453Z AUTO 07003KT 10SM FEW032 28/21 A3000 RMK AO2 SLP159 T02780211 403330244

Closest aviation forecast (TAF) to North Perry Airport

Forecast is more than 6 hours old.

Closest forecast is Jaime Gonzalez Airport, 231.4 nm (428.6 km) S.

2024/05/23 18:03 (retrieved 11 hours ago)

TAF MUCF 231700Z 2318/2406 VRB04KT 9000 SCT020 TEMPO 2320/2324 5000 RA FEW018CB BKN020